Terminal Aerodrome Forecast
Issued by NWS Jackson, KY

Home | Current Version | Previous Version | Text Only | Print | Product List | Glossary On
Versions: 1 2 3 4 5 6 7 8 9 10 11 12 13 14 15 16 17 18
000
FTUS43 KJKL 170811 AAA
TAFLOZ
TAF AMD
KLOZ 170811Z 1708/1806 00000KT P6SM SCT150
     FM171000 00000KT 6SM BR BKN015
     FM171200 25004KT P6SM VCSH BKN025
     FM171400 28004KT P6SM SCT070 SCT250=

USA.gov is the U.S. government's official web portal to all federal, state and local government web resources and services.